Nearby METAR Reports

 

KLXT - Lees Summit Muni, Missouri, USA
Distance from station: E 5mi, 9km
Updated: Mon, 23-Oct-2017 12:53am CDT
Clear
Clear
 Wind from SSW
Wind: SSW 7 mph , 11 km/h
Temperature: 48°F , 9°C
Wind Chill: 45°F , 7°C
Dew Point: 39°F , 4°C
Humidity: 71%
Barometer: 30.04 inHg , 1017.3 hPa
Clouds: Clear
Visibility: 10 miles , 16 km
2017/10/23 05:53 KLXT 230553Z AUTO 20006KT 10SM CLR 09/04 A3004 RMK AO2 SLP174 T00940044 10150 20094 401830094 58011
KMKC - Kansas City/Dntn, Missouri, USA
Distance from station: NW 12mi, 19km
Updated: Mon, 23-Oct-2017 12:54am CDT
Clear
Clear
 Wind from SW
Wind: SW 8 mph , 13 km/h
Temperature: 48°F , 9°C
Wind Chill: 44°F , 7°C
Dew Point: 43°F , 6°C
Humidity: 82%
Barometer: 30.04 inHg , 1017.3 hPa
Clouds: Clear
Visibility: 10 miles , 16 km
2017/10/23 05:54 KMKC 230554Z 22007KT 10SM CLR 09/06 A3004 RMK AO2 SLP170 T00890056 10167 20089 401940089 58009
 
KIXD - Olathe/Industria, Kansas, USA
Distance from station: WSW 25mi, 41km
Updated: Mon, 23-Oct-2017 12:53am CDT
Clear
Clear
 Wind from SSE
Wind: SSE 7 mph , 11 km/h
Temperature: 45°F , 7°C
Wind Chill: 41°F , 5°C
Dew Point: 39°F , 4°C
Humidity: 81%
Barometer: 30.05 inHg , 1017.6 hPa
Clouds: Clear
Visibility: 10 miles , 16 km
2017/10/23 05:53 KIXD 230553Z AUTO 16006KT 10SM CLR 07/04 A3005 RMK AO2 SLP173 T00670044 10139 20061 401830061 58011
KMCI - Kansas City/Intl, Missouri, USA
Distance from station: NW 26mi, 42km
Updated: Mon, 23-Oct-2017 12:53am CDT
Clear
Clear
 Wind from S
Wind: S 9 mph , 15 km/h
Temperature: 43°F , 6°C
Wind Chill: 38°F , 3°C
Dew Point: 39°F , 4°C
Humidity: 87%
Barometer: 30.03 inHg , 1016.9 hPa
Clouds: Clear
Visibility: 10 miles , 16 km
2017/10/23 05:53 KMCI 230553Z 18008KT 10SM CLR 06/04 A3003 RMK AO2 SLP167 T00610039 10139 20061 401940061 58012 $
 
KRCM - Warrensburg Skyh, Missouri, USA
Distance from station: ESE 38mi, 62km
Updated: Mon, 23-Oct-2017 1:15am CDT
Clear
Clear
 Wind from calm
Wind: Calm
Temperature: 41°F , 5°C
Dew Point: 39°F , 4°C
Humidity: 93%
Barometer: 30.05 inHg , 1017.6 hPa
Clouds: Clear
Visibility: 10 miles , 16 km
2017/10/23 06:15 KRCM 230615Z AUTO 00000KT 10SM CLR 05/04 A3005 RMK AO2
KLWC - Lawrence, Kansas, USA
Distance from station: W 40mi, 65km
Updated: Mon, 23-Oct-2017 12:52am CDT
Clear
Clear
 Wind from ESE
Wind: ESE 3 mph , 6 km/h
Temperature: 43°F , 6°C
Dew Point: 39°F , 4°C
Humidity: 87%
Barometer: 30.04 inHg , 1017.3 hPa
Clouds: Clear
Visibility: 10 miles , 16 km
2017/10/23 05:52 KLWC 230552Z AUTO 11003KT 10SM CLR 06/04 A3004 RMK AO2 SLP172 T00560044 10117 20056 402060056 58010
 
KSZL - Whiteman Afb, Missouri, USA
Distance from station: ESE 53mi, 86km
Updated: Mon, 23-Oct-2017 12:56am CDT
Clear
Clear
 Wind from calm
Wind: Calm
Temperature: 45°F , 7°C
Dew Point: 43°F , 6°C
Humidity: 93%
Barometer: 30.01 inHg , 1016.3 hPa
Clouds: Clear
Visibility: 10 miles , 16 km
2017/10/23 05:56 KSZL 230556Z 00000KT 10SM CLR 07/06 A3001 RMK AO2A SLP166 T00740059 10134 20064 401500064 56011
KSTJ - St. Joseph, Missouri, USA
Distance from station: NNW 59mi, 95km
Updated: Mon, 23-Oct-2017 12:53am CDT
Clear
Clear
 Wind from S
Wind: S 6 mph , 9 km/h
Temperature: 45°F , 7°C
Wind Chill: 42°F , 6°C
Dew Point: 43°F , 6°C
Humidity: 93%
Barometer: 30.01 inHg , 1016.3 hPa
Clouds: Clear
Visibility: 10 miles , 16 km
2017/10/23 05:53 KSTJ 230553Z AUTO 19005KT 10SM CLR 07/06 A3001 RMK AO2 SLP162 T00720056 10122 20050 402060050 58015 $
 
KGLY - Clinton, Missouri, USA
Distance from station: SE 61mi, 98km
Updated: Mon, 23-Oct-2017 12:35am CDT
Mist, Clear
Mist, Clear
 Wind from S
Wind: S 3 mph , 6 km/h
Temperature: 41°F , 5°C
Dew Point: 41°F , 5°C
Humidity: 100%
Barometer: 30.06 inHg , 1017.9 hPa
Summary: Mist
Clouds: Clear
Visibility: 6 miles , 10 km
2017/10/23 05:35 KGLY 230535Z AUTO 18003KT 6SM BR CLR 05/05 A3006 RMK AO2
KFOE - Topeka/Forbes, Kansas, USA
Distance from station: W 64mi, 103km
Updated: Mon, 23-Oct-2017 12:53am CDT
Clear
Clear
 Wind from S
Wind: S 8 mph , 13 km/h
Temperature: 48°F , 9°C
Wind Chill: 44°F , 7°C
Dew Point: 39°F , 4°C
Humidity: 71%
Barometer: 30.02 inHg , 1016.6 hPa
Clouds: Clear
Visibility: 10 miles , 16 km
2017/10/23 05:53 KFOE 230553Z AUTO 19007KT 10SM CLR 09/04 A3002 RMK AO2 SLP165 T00890039 10139 20072 402060072 58014
 
KDMO - Sedalia, Missouri, USA
Distance from station: ESE 72mi, 116km
Updated: Mon, 23-Oct-2017 12:53am CDT
Clear
Clear
 Wind from SSW
Wind: SSW 7 mph , 11 km/h
Temperature: 48°F , 9°C
Wind Chill: 45°F , 7°C
Dew Point: 48°F , 9°C
Humidity: 100%
Barometer: 30.06 inHg , 1017.9 hPa
Clouds: Clear
Visibility: 10 miles , 16 km
2017/10/23 05:53 KDMO 230553Z AUTO 21006KT 10SM CLR 09/09 A3006 RMK AO2 SLP179 T00890089 10133 20083 401670083 56012
KCDJ - Chillicothe, Missouri, USA
Distance from station: NE 74mi, 120km
Updated: Mon, 23-Oct-2017 12:52am CDT

 Wind from calm
Wind: Calm
Temperature: 45°F , 7°C
Dew Point: 43°F , 6°C
Humidity: 93%
Barometer: 30.04 inHg , 1017.3 hPa
2017/10/23 05:52 KCDJ 230552Z AUTO 00000KT 07/06 A3004 RMK AO1 SLP174 T00670061 10122 20061 401720061 57013
 
KFNB - Falls City/Brenn, Nebraska, USA
Distance from station: NW 96mi, 154km
Updated: Mon, 23-Oct-2017 12:53am CDT
Clear
Clear
 Wind from S
Wind: S 9 mph , 15 km/h
Temperature: 52°F , 11°C
Dew Point: 34°F , 1°C
Humidity: 50%
Barometer: 29.98 inHg , 1015.2 hPa
Clouds: Clear
Visibility: 10 miles , 16 km
2017/10/23 05:53 KFNB 230553Z AUTO 19008KT 10SM CLR 11/01 A2998 RMK AO2 SLP150 T01110011 10156 20100 402060067 56018
KVER - Boonville, Missouri, USA
Distance from station: E 96mi, 154km
Updated: Mon, 23-Oct-2017 12:55am CDT
Clear
Clear
 Wind from calm
Wind: Calm
Temperature: 46°F , 8°C
Barometer: 30.05 inHg , 1017.6 hPa
Clouds: Clear
Visibility: 7 miles , 11 km
2017/10/23 05:55 KVER 230555Z AUTO 00000KT 7SM CLR 08/ A3005 RMK AO2 T0083 10341 20037 403410037